Time;durP1;ratioP1;P1;durP2;ratioP2;P2;SDS_P1;SDS_P2;PMS_P1;PMS_P2;Temp;Humidity;BMP_temperature;BMP_pressure;BME280_temperature;BME280_humidity;BME280_pressure;Samples;Min_cycle;Max_cycle;Signal;HPM_P1;HPM_P2
2024/04/03 00:00:03;;;;;;;;;;;10.10;99.90;;;;;;2086623;28;19921;-75
2024/04/03 00:01:05;;;;;;;;;;;10.10;99.90;;;;;;2098552;28;20049;-74
2024/04/03 00:02:06;;;;;;;;;;;10.10;99.90;;;;;;2091909;28;19985;-74
2024/04/03 00:03:06;;;;;;;;;;;10.10;99.90;;;;;;2100503;28;19916;-74
2024/04/03 00:04:07;;;;;;;;;;;10.10;99.90;;;;;;2087193;28;20428;-74
2024/04/03 00:05:07;;;;;;;;;;;10.10;99.90;;;;;;2078218;28;20064;-75
2024/04/03 00:06:08;;;;;;;;;;;10.10;99.90;;;;;;2084798;28;20310;-74
2024/04/03 00:07:08;;;;;;;;;;;10.10;99.90;;;;;;2083423;28;19916;-75
2024/04/03 00:08:09;;;;;;;;;;;10.10;99.90;;;;;;2087706;28;19952;-74
2024/04/03 00:09:09;;;;;;;;;;;10.10;99.90;;;;;;2086758;28;19912;-75
2024/04/03 00:10:10;;;;;;;;;;;10.10;99.90;;;;;;2096311;28;19966;-74
2024/04/03 00:11:10;;;;;;;;;;;10.10;99.90;;;;;;2099951;28;20405;-74
2024/04/03 00:12:11;;;;;;;;;;;10.10;99.90;;;;;;2096023;28;20434;-73
2024/04/03 00:13:11;;;;;;;;;;;10.10;99.90;;;;;;2090721;28;19924;-73
2024/04/03 00:14:12;;;;;;;;;;;10.10;99.90;;;;;;2082631;28;19917;-73
2024/04/03 00:15:13;;;;;;;;;;;10.10;99.90;;;;;;2087327;28;19965;-74
2024/04/03 00:16:13;;;;;;;;;;;10.10;99.90;;;;;;2096391;28;19950;-75
2024/04/03 00:17:14;;;;;;;;;;;10.10;99.90;;;;;;2099821;28;20332;-74
2024/04/03 00:18:14;;;;;;;;;;;10.10;99.90;;;;;;2099525;28;19924;-75
2024/04/03 00:19:15;;;;;;;;;;;10.10;99.90;;;;;;2099609;28;19918;-76
2024/04/03 00:20:15;;;;;;;;;;;10.10;99.90;;;;;;2090217;28;19924;-75
2024/04/03 00:21:15;;;;;;;;;;;10.10;99.90;;;;;;2075501;28;20287;-75
2024/04/03 00:22:16;;;;;;;;;;;10.10;99.90;;;;;;2082598;28;19921;-75
2024/04/03 00:23:16;;;;;;;;;;;10.10;99.90;;;;;;2086948;28;19917;-75
2024/04/03 00:24:17;;;;;;;;;;;10.10;99.90;;;;;;2096744;28;19923;-74
2024/04/03 00:25:17;;;;;;;;;;;10.10;99.90;;;;;;2096088;28;19928;-75
2024/04/03 00:26:18;;;;;;;;;;;10.20;99.90;;;;;;2096313;28;19912;-74
2024/04/03 00:27:18;;;;;;;;;;;10.10;99.90;;;;;;2099985;28;19939;-75
2024/04/03 00:28:19;;;;;;;;;;;10.10;99.90;;;;;;2087116;28;19963;-74
2024/04/03 00:29:21;;;;;;;;;;;10.10;99.90;;;;;;2082687;28;19913;-74
2024/04/03 00:30:21;;;;;;;;;;;10.20;99.90;;;;;;2082464;28;20004;-75
2024/04/03 00:31:22;;;;;;;;;;;10.20;99.90;;;;;;2080499;28;20771;-74
2024/04/03 00:32:23;;;;;;;;;;;10.20;99.90;;;;;;2095481;28;20509;-74
2024/04/03 00:33:23;;;;;;;;;;;10.20;99.90;;;;;;2092323;28;19926;-75
2024/04/03 00:34:24;;;;;;;;;;;10.20;99.90;;;;;;2088430;28;19975;-75
2024/04/03 00:35:24;;;;;;;;;;;10.20;99.90;;;;;;2100533;28;19923;-74
2024/04/03 00:36:25;;;;;;;;;;;10.20;99.90;;;;;;2100794;28;19916;-74
2024/04/03 00:37:26;;;;;;;;;;;10.20;99.90;;;;;;2092344;28;20426;-74
2024/04/03 00:38:26;;;;;;;;;;;10.20;99.90;;;;;;2091142;28;19916;-74
2024/04/03 00:39:27;;;;;;;;;;;10.20;99.90;;;;;;2105108;28;19938;-73
2024/04/03 00:40:27;;;;;;;;;;;10.20;99.90;;;;;;2094431;28;19917;-72
2024/04/03 00:41:29;;;;;;;;;;;10.20;99.90;;;;;;2088371;28;19909;-72
2024/04/03 00:42:30;;;;;;;;;;;10.20;99.90;;;;;;2090477;28;20015;-72
2024/04/03 00:43:31;;;;;;;;;;;10.20;99.90;;;;;;2084221;28;19920;-72
2024/04/03 00:44:34;;;;;;;;;;;10.10;99.90;;;;;;2090063;28;19917;-72
2024/04/03 00:45:34;;;;;;;;;;;10.20;99.90;;;;;;2093225;28;19970;-73
2024/04/03 00:46:35;;;;;;;;;;;10.20;99.90;;;;;;2099082;28;19999;-73
2024/04/03 00:47:35;;;;;;;;;;;10.20;99.90;;;;;;2099741;28;19955;-73
2024/04/03 00:48:36;;;;;;;;;;;10.20;99.90;;;;;;2087840;28;20397;-73
2024/04/03 00:49:36;;;;;;;;;;;10.20;99.90;;;;;;2086017;28;19927;-73
2024/04/03 00:50:37;;;;;;;;;;;10.30;99.90;;;;;;2099784;28;19916;-73
2024/04/03 00:51:38;;;;;;;;;;;10.30;99.90;;;;;;2092402;28;20650;-73
2024/04/03 00:52:39;;;;;;;;;;;10.30;99.90;;;;;;2089892;28;19943;-73
2024/04/03 00:53:39;;;;;;;;;;;10.30;99.90;;;;;;2090814;28;19922;-73
2024/04/03 00:54:40;;;;;;;;;;;10.30;99.90;;;;;;2088091;28;20845;-73
2024/04/03 00:55:41;;;;;;;;;;;10.30;99.90;;;;;;2089770;28;19928;-74
2024/04/03 00:56:43;;;;;;;;;;;10.30;99.90;;;;;;2092585;28;19917;-74
2024/04/03 00:57:44;;;;;;;;;;;10.30;99.90;;;;;;2084340;28;19924;-73
2024/04/03 00:58:44;;;;;;;;;;;10.30;99.90;;;;;;2084144;28;19959;-73
2024/04/03 00:59:45;;;;;;;;;;;10.40;99.90;;;;;;2084357;28;19921;-72
2024/04/03 01:00:45;;;;;;;;;;;10.40;99.90;;;;;;2088186;28;19924;-72
2024/04/03 01:01:47;;;;;;;;;;;10.30;99.90;;;;;;2096461;28;20398;-72
2024/04/03 01:02:48;;;;;;;;;;;10.40;99.90;;;;;;2088253;28;19916;-72
2024/04/03 01:03:48;;;;;;;;;;;10.40;99.90;;;;;;2089304;28;20243;-72
2024/04/03 01:04:49;;;;;;;;;;;10.40;99.90;;;;;;2100445;28;20025;-73
2024/04/03 01:06:00;;;;;;;;;;;10.40;99.90;;;;;;2097320;28;19960;-72
2024/04/03 01:07:09;;;;;;;;;;;10.40;99.90;;;;;;2084722;28;19916;-72
2024/04/03 01:08:10;;;;;;;;;;;10.40;99.90;;;;;;2091512;28;19927;-72
2024/04/03 01:09:10;;;;;;;;;;;10.40;99.90;;;;;;2099294;28;19912;-72
2024/04/03 01:10:11;;;;;;;;;;;10.40;99.90;;;;;;2095063;28;19921;-72
2024/04/03 01:11:11;;;;;;;;;;;10.40;99.90;;;;;;2097069;28;19923;-72
2024/04/03 01:12:12;;;;;;;;;;;10.40;99.90;;;;;;2099739;28;19955;-72
2024/04/03 01:13:12;;;;;;;;;;;10.50;99.90;;;;;;2097546;28;19912;-72
2024/04/03 01:14:13;;;;;;;;;;;10.50;99.90;;;;;;2087059;28;19916;-73
2024/04/03 01:15:13;;;;;;;;;;;10.60;99.90;;;;;;2089988;28;20298;-74
2024/04/03 01:16:14;;;;;;;;;;;10.60;99.90;;;;;;2100204;28;19916;-72
2024/04/03 01:17:14;;;;;;;;;;;10.60;99.90;;;;;;2097758;28;20423;-73
2024/04/03 01:18:15;;;;;;;;;;;10.60;99.90;;;;;;2098819;28;19920;-73
2024/04/03 01:19:15;;;;;;;;;;;10.60;99.90;;;;;;2100115;28;20352;-73
2024/04/03 01:20:16;;;;;;;;;;;10.60;99.90;;;;;;2087863;28;20023;-73
2024/04/03 01:21:16;;;;;;;;;;;10.60;99.90;;;;;;2077743;28;19924;-73
2024/04/03 01:22:17;;;;;;;;;;;10.70;99.90;;;;;;2094639;28;20712;-72
2024/04/03 01:23:18;;;;;;;;;;;10.60;99.90;;;;;;2100716;28;20009;-76
2024/04/03 01:24:20;;;;;;;;;;;10.60;99.90;;;;;;2097359;28;19951;-76
2024/04/03 01:25:21;;;;;;;;;;;10.60;99.90;;;;;;2089480;28;20376;-72
2024/04/03 01:26:21;;;;;;;;;;;10.70;99.90;;;;;;2082819;28;19921;-73
2024/04/03 01:27:21;;;;;;;;;;;10.70;99.90;;;;;;2087559;28;19912;-69
2024/04/03 01:28:22;;;;;;;;;;;10.70;99.90;;;;;;2094801;28;19950;-68
2024/04/03 01:29:23;;;;;;;;;;;10.70;99.90;;;;;;2096725;28;20005;-68
2024/04/03 01:30:23;;;;;;;;;;;10.70;99.90;;;;;;2099732;28;20010;-69
2024/04/03 01:31:24;;;;;;;;;;;10.70;99.90;;;;;;2094949;28;20345;-68
2024/04/03 01:32:24;;;;;;;;;;;10.70;99.90;;;;;;2100406;28;20428;-68
2024/04/03 01:33:25;;;;;;;;;;;10.70;99.90;;;;;;2097221;28;20438;-68
2024/04/03 01:34:25;;;;;;;;;;;10.70;99.90;;;;;;2097509;28;20044;-68
2024/04/03 01:35:26;;;;;;;;;;;10.70;99.90;;;;;;2100501;28;20107;-68
2024/04/03 01:36:26;;;;;;;;;;;10.70;99.90;;;;;;2100137;28;19963;-68
2024/04/03 01:37:27;;;;;;;;;;;10.70;99.90;;;;;;2097689;28;19912;-69
2024/04/03 01:38:27;;;;;;;;;;;10.70;99.90;;;;;;2097160;28;19924;-68
2024/04/03 01:39:30;;;;;;;;;;;10.70;99.90;;;;;;2097504;28;19923;-68
2024/04/03 01:40:30;;;;;;;;;;;10.70;99.90;;;;;;2100551;28;19968;-68
2024/04/03 01:41:31;;;;;;;;;;;10.70;99.90;;;;;;2088215;28;20462;-69
2024/04/03 01:42:31;;;;;;;;;;;10.70;99.90;;;;;;2088825;28;19919;-69
2024/04/03 01:43:32;;;;;;;;;;;10.70;99.90;;;;;;2100224;28;19912;-69
2024/04/03 01:44:32;;;;;;;;;;;10.70;99.90;;;;;;2096793;28;19941;-69
2024/04/03 01:45:33;;;;;;;;;;;10.70;99.90;;;;;;2097076;28;19920;-70
2024/04/03 01:46:33;;;;;;;;;;;10.70;99.90;;;;;;2100746;28;20358;-68
2024/04/03 01:47:34;;;;;;;;;;;10.80;99.90;;;;;;2096886;28;20345;-68
2024/04/03 01:48:34;;;;;;;;;;;10.80;99.90;;;;;;2100590;28;20208;-68
2024/04/03 01:49:35;;;;;;;;;;;10.80;99.90;;;;;;2101058;28;20290;-68
2024/04/03 01:50:37;;;;;;;;;;;10.80;99.90;;;;;;2100695;28;19965;-69
2024/04/03 01:51:37;;;;;;;;;;;10.80;99.90;;;;;;2097274;28;19927;-68
2024/04/03 01:52:38;;;;;;;;;;;10.80;99.90;;;;;;2100887;28;19959;-68
2024/04/03 01:53:38;;;;;;;;;;;10.80;99.90;;;;;;2092186;28;20003;-68
2024/04/03 01:54:39;;;;;;;;;;;10.80;99.90;;;;;;2097303;28;19923;-68
2024/04/03 01:55:39;;;;;;;;;;;10.80;99.90;;;;;;2100437;28;19919;-68
2024/04/03 01:56:40;;;;;;;;;;;10.80;99.90;;;;;;2097452;28;19916;-69
2024/04/03 01:57:40;;;;;;;;;;;10.80;99.90;;;;;;2098397;28;19974;-69
2024/04/03 01:58:42;;;;;;;;;;;10.80;99.90;;;;;;2091095;28;19960;-69
2024/04/03 01:59:42;;;;;;;;;;;10.80;99.90;;;;;;2087901;28;19932;-69
2024/04/03 02:00:43;;;;;;;;;;;10.80;99.90;;;;;;2101032;28;20015;-69
2024/04/03 02:01:43;;;;;;;;;;;10.70;99.90;;;;;;2097013;28;19923;-69
2024/04/03 02:02:43;;;;;;;;;;;10.80;99.90;;;;;;2096911;28;20352;-68
2024/04/03 02:03:44;;;;;;;;;;;10.80;99.90;;;;;;2100596;28;19916;-69
2024/04/03 02:04:45;;;;;;;;;;;10.80;99.90;;;;;;2097390;28;20006;-69
2024/04/03 02:05:45;;;;;;;;;;;10.70;99.90;;;;;;2096805;28;20315;-69
2024/04/03 02:06:46;;;;;;;;;;;10.70;99.90;;;;;;2100730;28;19954;-69
2024/04/03 02:07:48;;;;;;;;;;;10.70;99.90;;;;;;2092590;28;20258;-69
2024/04/03 02:08:48;;;;;;;;;;;10.70;99.90;;;;;;2101956;28;19916;-69
2024/04/03 02:09:49;;;;;;;;;;;10.70;99.90;;;;;;2104192;28;20036;-69
2024/04/03 02:10:49;;;;;;;;;;;10.70;99.90;;;;;;2098045;28;20518;-69
2024/04/03 02:11:50;;;;;;;;;;;10.60;99.90;;;;;;2096920;28;20565;-69
2024/04/03 02:12:50;;;;;;;;;;;10.60;99.90;;;;;;2099854;28;19913;-69
2024/04/03 02:13:51;;;;;;;;;;;10.60;99.90;;;;;;2089092;28;20015;-69
2024/04/03 02:14:51;;;;;;;;;;;10.60;99.90;;;;;;2087893;28;19958;-68
2024/04/03 02:15:52;;;;;;;;;;;10.60;99.90;;;;;;2086909;28;19960;-68
2024/04/03 02:16:54;;;;;;;;;;;10.60;99.90;;;;;;2088071;28;19920;-69
2024/04/03 02:17:54;;;;;;;;;;;10.60;99.90;;;;;;2099911;28;19916;-68
2024/04/03 02:18:55;;;;;;;;;;;10.60;99.90;;;;;;2097614;28;20410;-68
2024/04/03 02:19:55;;;;;;;;;;;10.60;99.90;;;;;;2096625;28;19923;-68
2024/04/03 02:20:56;;;;;;;;;;;10.60;99.90;;;;;;2090167;28;19912;-67
2024/04/03 02:21:56;;;;;;;;;;;10.60;99.90;;;;;;2089999;28;19913;-68
2024/04/03 02:22:57;;;;;;;;;;;10.60;99.90;;;;;;2089150;28;19920;-69
2024/04/03 02:23:57;;;;;;;;;;;10.60;99.90;;;;;;2087482;28;19924;-68
2024/04/03 02:24:58;;;;;;;;;;;10.60;99.90;;;;;;2099030;28;19916;-69
2024/04/03 02:25:58;;;;;;;;;;;10.60;99.90;;;;;;2098907;28;20270;-68
2024/04/03 02:26:59;;;;;;;;;;;10.60;99.90;;;;;;2100542;28;19916;-70
2024/04/03 02:27:59;;;;;;;;;;;10.60;99.90;;;;;;2098786;28;20342;-70
2024/04/03 02:29:01;;;;;;;;;;;10.60;99.90;;;;;;2098174;28;21497;-69
2024/04/03 02:30:02;;;;;;;;;;;10.60;99.90;;;;;;2096626;28;20015;-69
2024/04/03 02:31:03;;;;;;;;;;;10.60;99.90;;;;;;2095082;28;20109;-70
2024/04/03 02:32:04;;;;;;;;;;;10.60;99.90;;;;;;2100259;28;19916;-70
2024/04/03 02:33:04;;;;;;;;;;;10.60;99.90;;;;;;2091503;28;20275;-69
2024/04/03 02:34:04;;;;;;;;;;;10.60;99.90;;;;;;2089225;28;19943;-69
2024/04/03 02:35:05;;;;;;;;;;;10.60;99.90;;;;;;2097230;28;20012;-69
2024/04/03 02:36:12;;;;;;;;;;;10.60;99.90;;;;;;2098885;28;20018;-69
2024/04/03 02:37:13;;;;;;;;;;;10.60;99.90;;;;;;2096621;28;20332;-68
2024/04/03 02:38:13;;;;;;;;;;;10.50;99.90;;;;;;2097667;28;19973;-69
2024/04/03 02:39:14;;;;;;;;;;;10.60;99.90;;;;;;2099753;28;19946;-68
2024/04/03 02:40:14;;;;;;;;;;;10.50;99.90;;;;;;2096628;28;20006;-69
2024/04/03 02:41:15;;;;;;;;;;;10.50;99.90;;;;;;2097203;28;19927;-68
2024/04/03 02:42:16;;;;;;;;;;;10.50;99.90;;;;;;2083482;28;20405;-69
2024/04/03 02:43:16;;;;;;;;;;;10.50;99.90;;;;;;2083103;28;20008;-69
2024/04/03 02:44:17;;;;;;;;;;;10.50;99.90;;;;;;2096598;28;19913;-69
2024/04/03 02:45:17;;;;;;;;;;;10.40;99.90;;;;;;2091255;28;19932;-69
2024/04/03 02:46:18;;;;;;;;;;;10.50;99.90;;;;;;2091482;28;19939;-69
2024/04/03 02:47:18;;;;;;;;;;;10.50;99.90;;;;;;2097274;28;19920;-69
2024/04/03 02:48:19;;;;;;;;;;;10.50;99.90;;;;;;2100361;28;19916;-68
2024/04/03 02:49:19;;;;;;;;;;;10.50;99.90;;;;;;2096546;28;20375;-69
2024/04/03 02:50:20;;;;;;;;;;;10.50;99.90;;;;;;2096670;28;19917;-69
2024/04/03 02:51:22;;;;;;;;;;;10.50;99.90;;;;;;2096707;28;19916;-69
2024/04/03 02:52:23;;;;;;;;;;;10.50;99.90;;;;;;2091611;28;20349;-68
2024/04/03 02:53:23;;;;;;;;;;;10.50;99.90;;;;;;2089011;28;19917;-69
2024/04/03 02:54:24;;;;;;;;;;;10.50;99.90;;;;;;2096484;28;20311;-68
2024/04/03 02:55:24;;;;;;;;;;;10.50;99.90;;;;;;2100341;28;19916;-67
2024/04/03 02:56:25;;;;;;;;;;;10.50;99.90;;;;;;2096254;28;20334;-68
2024/04/03 02:57:25;;;;;;;;;;;10.50;99.90;;;;;;2086910;28;19939;-68
2024/04/03 02:58:26;;;;;;;;;;;10.50;99.90;;;;;;2087489;28;19912;-69
2024/04/03 02:59:26;;;;;;;;;;;10.50;99.90;;;;;;2100555;28;19922;-69
2024/04/03 03:00:27;;;;;;;;;;;10.50;99.90;;;;;;2096852;28;19916;-68
2024/04/03 03:01:27;;;;;;;;;;;10.40;99.90;;;;;;2100257;28;19916;-69
2024/04/03 03:02:28;;;;;;;;;;;10.40;99.90;;;;;;2091844;28;20029;-69
2024/04/03 03:03:29;;;;;;;;;;;10.40;99.90;;;;;;2096438;28;19912;-69
2024/04/03 03:04:39;;;;;;;;;;;10.40;99.90;;;;;;2100202;28;19916;-69
2024/04/03 03:05:39;;;;;;;;;;;10.40;99.90;;;;;;2100211;28;20532;-69
2024/04/03 03:06:40;;;;;;;;;;;10.40;99.90;;;;;;2096643;28;19962;-69
2024/04/03 03:07:40;;;;;;;;;;;10.30;99.90;;;;;;2100496;28;20008;-69
2024/04/03 03:08:41;;;;;;;;;;;10.30;99.90;;;;;;2100737;28;19991;-69
2024/04/03 03:09:41;;;;;;;;;;;10.30;99.90;;;;;;2096135;28;19917;-69
2024/04/03 03:10:42;;;;;;;;;;;10.20;99.90;;;;;;2098127;28;19913;-69
2024/04/03 03:11:42;;;;;;;;;;;10.20;99.90;;;;;;2096816;28;19965;-69
2024/04/03 03:12:43;;;;;;;;;;;10.20;99.90;;;;;;2096528;28;19916;-69
2024/04/03 03:13:43;;;;;;;;;;;10.20;99.90;;;;;;2098355;28;19916;-69
2024/04/03 03:14:44;;;;;;;;;;;10.10;99.90;;;;;;2096381;28;20423;-68
2024/04/03 03:15:51;;;;;;;;;;;10.10;99.90;;;;;;2089734;28;19968;-70
2024/04/03 03:16:52;;;;;;;;;;;10.10;99.90;;;;;;2091397;28;19917;-69
2024/04/03 03:17:52;;;;;;;;;;;10.10;99.90;;;;;;2096532;28;20388;-69
2024/04/03 03:18:53;;;;;;;;;;;10.10;99.90;;;;;;2097590;28;19920;-69
2024/04/03 03:19:53;;;;;;;;;;;10.00;99.90;;;;;;2099409;28;20179;-68
2024/04/03 03:20:53;;;;;;;;;;;10.00;99.90;;;;;;2096451;28;19916;-68
2024/04/03 03:21:54;;;;;;;;;;;10.00;99.90;;;;;;2100181;28;19916;-69
2024/04/03 03:22:54;;;;;;;;;;;9.90;99.90;;;;;;2100050;28;20432;-68
2024/04/03 03:23:55;;;;;;;;;;;9.90;99.90;;;;;;2099899;28;20247;-70
2024/04/03 03:24:55;;;;;;;;;;;9.90;99.90;;;;;;2097111;28;20191;-69
2024/04/03 03:25:56;;;;;;;;;;;9.90;99.90;;;;;;2100243;28;19966;-70
2024/04/03 03:26:56;;;;;;;;;;;9.90;99.90;;;;;;2096286;28;20010;-68
2024/04/03 03:27:57;;;;;;;;;;;9.90;99.90;;;;;;2097263;28;19943;-68
2024/04/03 03:28:57;;;;;;;;;;;9.90;99.90;;;;;;2099898;28;19959;-67
2024/04/03 03:29:58;;;;;;;;;;;9.90;99.90;;;;;;2096269;28;20032;-68
2024/04/03 03:30:58;;;;;;;;;;;9.80;99.90;;;;;;2092888;28;20004;-70
2024/04/03 03:31:59;;;;;;;;;;;9.80;99.90;;;;;;2097150;28;20021;-68
2024/04/03 03:32:59;;;;;;;;;;;9.80;99.90;;;;;;2099996;28;20181;-69
2024/04/03 03:33:59;;;;;;;;;;;9.80;99.90;;;;;;2099403;28;19916;-69
2024/04/03 03:35:00;;;;;;;;;;;9.80;99.90;;;;;;2097277;28;20322;-68
2024/04/03 03:36:00;;;;;;;;;;;9.80;99.90;;;;;;2099685;28;19924;-69
2024/04/03 03:37:01;;;;;;;;;;;9.80;99.90;;;;;;2086704;28;19923;-69
2024/04/03 03:38:01;;;;;;;;;;;9.70;99.90;;;;;;2087774;28;20298;-69
2024/04/03 03:39:02;;;;;;;;;;;9.70;99.90;;;;;;2100089;28;19919;-69
2024/04/03 03:40:03;;;;;;;;;;;9.70;99.90;;;;;;2096039;28;20301;-69
2024/04/03 03:41:04;;;;;;;;;;;9.70;99.90;;;;;;2096258;28;19920;-69
2024/04/03 03:42:04;;;;;;;;;;;9.70;99.90;;;;;;2100511;28;20035;-69
2024/04/03 03:43:05;;;;;;;;;;;9.70;99.90;;;;;;2092176;28;20375;-68
2024/04/03 03:44:05;;;;;;;;;;;9.70;99.90;;;;;;2096583;28;19923;-68
2024/04/03 03:45:06;;;;;;;;;;;9.70;99.90;;;;;;2099555;28;19923;-68
2024/04/03 03:46:06;;;;;;;;;;;9.70;99.90;;;;;;2096593;28;20207;-69
2024/04/03 03:47:07;;;;;;;;;;;9.70;99.90;;;;;;2087305;28;19920;-68
2024/04/03 03:48:07;;;;;;;;;;;9.70;99.90;;;;;;2091328;28;20417;-70
2024/04/03 03:53:07;;;;;;;;;;;9.70;99.90;;;;;;2096706;28;19935;-69
2024/04/03 03:54:08;;;;;;;;;;;9.70;99.90;;;;;;2096741;28;20387;-70
2024/04/03 03:55:08;;;;;;;;;;;9.70;99.90;;;;;;2098966;28;19916;-69
2024/04/03 03:56:09;;;;;;;;;;;9.70;99.90;;;;;;2098580;28;20037;-69
2024/04/03 03:57:09;;;;;;;;;;;9.70;99.90;;;;;;2096816;28;19916;-69
2024/04/03 03:58:10;;;;;;;;;;;9.70;99.90;;;;;;2099394;28;20365;-69
2024/04/03 03:59:10;;;;;;;;;;;9.70;99.90;;;;;;2099165;28;19915;-69
2024/04/03 04:00:11;;;;;;;;;;;9.60;99.90;;;;;;2096542;28;19916;-70
2024/04/03 04:01:12;;;;;;;;;;;9.60;99.90;;;;;;2100268;28;20017;-70
2024/04/03 04:02:12;;;;;;;;;;;9.60;99.90;;;;;;2092262;28;20345;-69
2024/04/03 04:03:13;;;;;;;;;;;9.50;99.90;;;;;;2092340;28;19917;-69
2024/04/03 04:04:13;;;;;;;;;;;9.50;99.90;;;;;;2090899;28;20395;-70
2024/04/03 04:05:14;;;;;;;;;;;9.50;99.90;;;;;;2085066;28;19994;-69
2024/04/03 04:06:14;;;;;;;;;;;9.60;99.90;;;;;;2095023;28;19916;-69
2024/04/03 04:07:15;;;;;;;;;;;9.50;99.90;;;;;;2095534;28;19916;-69
2024/04/03 04:08:16;;;;;;;;;;;9.50;99.90;;;;;;2089742;28;20473;-70
2024/04/03 04:09:16;;;;;;;;;;;9.50;99.90;;;;;;2079497;28;19924;-69
2024/04/03 04:10:17;;;;;;;;;;;9.50;99.90;;;;;;2079644;28;20375;-69
2024/04/03 04:11:17;;;;;;;;;;;9.50;99.90;;;;;;2091550;28;19924;-69
2024/04/03 04:12:18;;;;;;;;;;;9.50;99.90;;;;;;2092557;28;20308;-69
2024/04/03 04:13:19;;;;;;;;;;;9.50;99.90;;;;;;2089805;28;19920;-68
2024/04/03 04:14:21;;;;;;;;;;;9.50;99.90;;;;;;2097020;28;19995;-70
2024/04/03 04:15:24;;;;;;;;;;;9.50;99.90;;;;;;2098573;28;20119;-70
2024/04/03 04:16:25;;;;;;;;;;;9.50;99.90;;;;;;2098397;28;19915;-69
2024/04/03 04:17:25;;;;;;;;;;;9.50;99.90;;;;;;2096805;28;20363;-72
2024/04/03 04:18:25;;;;;;;;;;;9.50;99.90;;;;;;2099092;28;19965;-69
2024/04/03 04:19:27;;;;;;;;;;;9.50;99.90;;;;;;2098151;28;19971;-68
2024/04/03 04:20:28;;;;;;;;;;;9.40;99.90;;;;;;2096733;28;20014;-68
2024/04/03 04:21:28;;;;;;;;;;;9.40;99.90;;;;;;2095915;28;19928;-68
2024/04/03 04:22:28;;;;;;;;;;;9.40;99.90;;;;;;2099728;28;20333;-69
2024/04/03 04:23:29;;;;;;;;;;;9.40;99.90;;;;;;2098302;28;19959;-69
2024/04/03 04:24:29;;;;;;;;;;;9.40;99.90;;;;;;2095918;28;19966;-69
2024/04/03 04:25:30;;;;;;;;;;;9.40;99.90;;;;;;2097732;28;19951;-69
2024/04/03 04:26:31;;;;;;;;;;;9.40;99.90;;;;;;2099649;28;19912;-67
2024/04/03 04:27:31;;;;;;;;;;;9.30;99.90;;;;;;2097701;28;20342;-68
2024/04/03 04:28:32;;;;;;;;;;;9.30;99.90;;;;;;2097654;28;19912;-68
2024/04/03 04:29:35;;;;;;;;;;;9.40;99.90;;;;;;2099133;28;19908;-69
2024/04/03 04:30:39;;;;;;;;;;;9.30;99.90;;;;;;2084090;28;20050;-68
2024/04/03 04:31:40;;;;;;;;;;;9.30;99.90;;;;;;2085010;28;20018;-68
2024/04/03 04:32:41;;;;;;;;;;;9.30;99.90;;;;;;2097288;28;19952;-68
2024/04/03 04:33:41;;;;;;;;;;;9.30;99.90;;;;;;2089247;28;19964;-68
2024/04/03 04:34:42;;;;;;;;;;;9.30;99.90;;;;;;2091925;28;19916;-68
2024/04/03 04:35:50;;;;;;;;;;;9.30;99.90;;;;;;2097429;28;19908;-68
2024/04/03 04:36:51;;;;;;;;;;;9.30;99.90;;;;;;2094168;28;20286;-67
2024/04/03 04:37:52;;;;;;;;;;;9.30;99.90;;;;;;2100894;28;19927;-68
2024/04/03 04:38:52;;;;;;;;;;;9.30;99.90;;;;;;2098033;28;19916;-68
2024/04/03 04:39:53;;;;;;;;;;;9.30;99.90;;;;;;2086648;28;19916;-68
2024/04/03 04:40:57;;;;;;;;;;;9.30;99.90;;;;;;2088644;28;20404;-69
2024/04/03 04:41:57;;;;;;;;;;;9.30;99.90;;;;;;2098241;28;20083;-69
2024/04/03 04:42:58;;;;;;;;;;;9.30;99.90;;;;;;2096738;28;19916;-69
2024/04/03 04:43:58;;;;;;;;;;;9.40;99.90;;;;;;2096997;28;20070;-69
2024/04/03 04:44:59;;;;;;;;;;;9.30;99.90;;;;;;2101364;28;20340;-69
2024/04/03 04:46:00;;;;;;;;;;;9.30;99.90;;;;;;2097051;28;19923;-67
2024/04/03 04:47:01;;;;;;;;;;;9.40;99.90;;;;;;2096090;28;20066;-69
2024/04/03 04:48:01;;;;;;;;;;;9.40;99.90;;;;;;2098259;28;19969;-70
2024/04/03 04:49:01;;;;;;;;;;;9.40;99.90;;;;;;2095824;28;19928;-68
2024/04/03 04:50:02;;;;;;;;;;;9.50;99.90;;;;;;2096104;28;19912;-69
2024/04/03 04:51:03;;;;;;;;;;;9.50;99.90;;;;;;2097250;28;20109;-69
2024/04/03 04:52:03;;;;;;;;;;;9.50;99.90;;;;;;2097033;28;19917;-68
2024/04/03 04:53:04;;;;;;;;;;;9.60;99.90;;;;;;2095867;28;19928;-68
2024/04/03 04:54:04;;;;;;;;;;;9.60;99.90;;;;;;2095687;28;19920;-69
2024/04/03 04:55:05;;;;;;;;;;;9.60;99.90;;;;;;2100279;28;19913;-69
2024/04/03 04:56:09;;;;;;;;;;;9.60;99.90;;;;;;2099300;28;20015;-69
2024/04/03 04:57:09;;;;;;;;;;;9.60;99.90;;;;;;2099765;28;19920;-69
2024/04/03 04:58:10;;;;;;;;;;;9.60;99.90;;;;;;2099477;28;19920;-69
2024/04/03 04:59:11;;;;;;;;;;;9.60;99.90;;;;;;2098347;28;19917;-69
2024/04/03 05:00:12;;;;;;;;;;;9.60;99.90;;;;;;2096791;28;19970;-69
2024/04/03 05:01:12;;;;;;;;;;;9.70;99.90;;;;;;2097511;28;20073;-68
2024/04/03 05:02:13;;;;;;;;;;;9.70;99.90;;;;;;2098365;28;19920;-68
2024/04/03 05:03:13;;;;;;;;;;;9.70;99.90;;;;;;2097291;28;19926;-69
2024/04/03 05:04:13;;;;;;;;;;;9.80;99.90;;;;;;2097923;28;19925;-69
2024/04/03 05:05:14;;;;;;;;;;;9.80;99.90;;;;;;2102093;28;20373;-68
2024/04/03 05:06:15;;;;;;;;;;;9.80;99.90;;;;;;2104618;28;19915;-69
2024/04/03 05:07:15;;;;;;;;;;;9.80;99.90;;;;;;2095194;28;20651;-69
2024/04/03 05:08:18;;;;;;;;;;;9.90;99.90;;;;;;2096867;28;19998;-71
2024/04/03 05:09:18;;;;;;;;;;;9.90;99.90;;;;;;2095651;28;19965;-70
2024/04/03 05:10:19;;;;;;;;;;;9.80;99.90;;;;;;2098928;28;20506;-68
2024/04/03 05:11:19;;;;;;;;;;;9.80;99.90;;;;;;2102267;28;19923;-68
2024/04/03 05:12:19;;;;;;;;;;;9.90;99.90;;;;;;2100047;28;20045;-68
2024/04/03 05:13:20;;;;;;;;;;;9.90;99.90;;;;;;2099769;28;20350;-69
2024/04/03 05:14:20;;;;;;;;;;;9.90;99.90;;;;;;2099512;28;19947;-69
2024/04/03 05:15:22;;;;;;;;;;;9.90;99.90;;;;;;2095063;28;20343;-69
2024/04/03 05:16:22;;;;;;;;;;;9.90;99.90;;;;;;2097095;28;19917;-67
2024/04/03 05:17:23;;;;;;;;;;;10.00;99.90;;;;;;2096970;28;19995;-69
2024/04/03 05:18:23;;;;;;;;;;;10.00;99.90;;;;;;2092555;28;19917;-68
2024/04/03 05:19:24;;;;;;;;;;;10.00;99.90;;;;;;2092580;28;19917;-68
2024/04/03 05:20:24;;;;;;;;;;;10.10;99.90;;;;;;2099796;28;19923;-68
2024/04/03 05:21:25;;;;;;;;;;;10.10;99.90;;;;;;2091367;28;19916;-68
2024/04/03 05:22:25;;;;;;;;;;;10.10;99.90;;;;;;2091696;28;19921;-69
2024/04/03 05:23:26;;;;;;;;;;;10.10;99.90;;;;;;2091833;28;19920;-69
2024/04/03 05:24:26;;;;;;;;;;;10.10;99.90;;;;;;2091892;28;19937;-69
2024/04/03 05:25:27;;;;;;;;;;;10.10;99.90;;;;;;2099567;28;19974;-69
2024/04/03 05:26:27;;;;;;;;;;;10.10;99.90;;;;;;2097614;28;19967;-69
2024/04/03 05:27:27;;;;;;;;;;;10.10;99.90;;;;;;2099717;28;20003;-69
2024/04/03 05:28:30;;;;;;;;;;;10.10;99.90;;;;;;2097882;28;20484;-69
2024/04/03 05:29:30;;;;;;;;;;;10.10;99.90;;;;;;2088091;28;19912;-69
2024/04/03 05:30:34;;;;;;;;;;;10.10;99.90;;;;;;2084539;28;19913;-78
2024/04/03 05:31:37;;;;;;;;;;;10.10;99.90;;;;;;2099749;28;19926;-77
2024/04/03 05:32:38;;;;;;;;;;;10.10;99.90;;;;;;2094534;28;19916;-79
2024/04/03 05:33:38;;;;;;;;;;;10.10;99.90;;;;;;2088789;28;20008;-78
2024/04/03 05:34:39;;;;;;;;;;;10.10;99.90;;;;;;2087219;28;19989;-78
2024/04/03 05:35:39;;;;;;;;;;;10.10;99.90;;;;;;2094209;28;19916;-79
2024/04/03 05:36:40;;;;;;;;;;;10.10;99.90;;;;;;2091366;28;19956;-79
2024/04/03 05:37:40;;;;;;;;;;;10.20;99.90;;;;;;2092777;28;19971;-79
2024/04/03 05:38:41;;;;;;;;;;;10.20;99.90;;;;;;2100592;28;19948;-79
2024/04/03 05:39:42;;;;;;;;;;;10.20;99.90;;;;;;2089185;28;19920;-78
2024/04/03 05:40:42;;;;;;;;;;;10.20;99.90;;;;;;2092549;28;19917;-79
2024/04/03 05:41:43;;;;;;;;;;;10.20;99.90;;;;;;2101765;28;19965;-78
2024/04/03 05:42:43;;;;;;;;;;;10.20;99.90;;;;;;2101359;28;19916;-79
2024/04/03 05:43:44;;;;;;;;;;;10.20;99.90;;;;;;2097558;28;19924;-79
2024/04/03 05:44:44;;;;;;;;;;;10.20;99.90;;;;;;2096183;28;19912;-79
2024/04/03 05:45:45;;;;;;;;;;;10.20;99.90;;;;;;2098628;28;19935;-79
2024/04/03 05:46:45;;;;;;;;;;;10.20;99.90;;;;;;2099072;28;19978;-79
2024/04/03 05:47:46;;;;;;;;;;;10.30;99.90;;;;;;2099795;28;20020;-79
2024/04/03 05:48:46;;;;;;;;;;;10.20;99.90;;;;;;2096275;28;19956;-79
2024/04/03 05:49:47;;;;;;;;;;;10.30;99.90;;;;;;2088202;28;19924;-79
2024/04/03 05:50:57;;;;;;;;;;;10.30;99.90;;;;;;2089204;28;19916;-79
2024/04/03 05:51:58;;;;;;;;;;;10.20;99.90;;;;;;2099982;28;19926;-79
2024/04/03 05:53:01;;;;;;;;;;;10.30;99.90;;;;;;2097320;28;20006;-82
2024/04/03 05:54:01;;;;;;;;;;;10.30;99.90;;;;;;2099582;28;19916;-78
2024/04/03 05:55:02;;;;;;;;;;;10.30;99.90;;;;;;2095450;28;19916;-78
2024/04/03 05:56:03;;;;;;;;;;;10.30;99.90;;;;;;2099564;28;19916;-78
2024/04/03 05:57:03;;;;;;;;;;;10.30;99.90;;;;;;2087189;28;20597;-79
2024/04/03 05:58:04;;;;;;;;;;;10.30;99.90;;;;;;2088097;28;19978;-79
2024/04/03 05:59:04;;;;;;;;;;;10.30;99.90;;;;;;2101078;28;19920;-79